Time;durP1;ratioP1;P1;durP2;ratioP2;P2;SDS_P1;SDS_P2;PMS_P1;PMS_P2;Temp;Humidity;BMP_temperature;BMP_pressure;BME280_temperature;BME280_humidity;BME280_pressure;Samples;Min_cycle;Max_cycle;Signal;HPM_P1;HPM_P2
2022/06/03 00:00:19;;;;;;;1.95;0.80;;;18.30;66.70;;;;;;5114708;28;20378;-74
2022/06/03 00:03:02;;;;;;;0.98;0.80;;;18.30;66.70;;;;;;5096705;28;20023;-75
2022/06/03 00:05:48;;;;;;;1.50;0.60;;;18.20;66.50;;;;;;5097442;28;20016;-74
2022/06/03 00:08:36;;;;;;;3.45;0.80;;;18.20;66.70;;;;;;5112351;28;20023;-74
2022/06/03 00:11:19;;;;;;;1.45;0.80;;;18.20;66.80;;;;;;5114806;28;20028;-75
2022/06/03 00:14:23;;;;;;;5.03;1.52;;;18.20;66.90;;;;;;5112066;28;20043;-75
2022/06/03 00:17:12;;;;;;;2.10;0.90;;;18.20;67.30;;;;;;5110588;28;20058;-75
2022/06/03 00:19:43;;;;;;;1.50;0.80;;;18.20;67.50;;;;;;5113727;28;20487;-75
2022/06/03 00:22:41;;;;;;;1.63;0.88;;;18.10;67.70;;;;;;5114253;28;20047;-74
2022/06/03 00:25:26;;;;;;;1.85;0.80;;;18.00;67.50;;;;;;5108350;28;20028;-75
2022/06/03 00:28:15;;;;;;;3.42;0.95;;;18.00;67.70;;;;;;5111270;28;20030;-74
2022/06/03 00:31:10;;;;;;;3.65;0.93;;;18.00;67.80;;;;;;5114654;28;20030;-75
2022/06/03 00:33:43;;;;;;;1.83;0.90;;;18.00;67.90;;;;;;5113188;28;20059;-75
2022/06/03 00:36:43;;;;;;;0.82;0.73;;;18.00;68.00;;;;;;5109867;28;20024;-75
2022/06/03 00:39:33;;;;;;;1.13;0.80;;;18.00;68.50;;;;;;5057600;28;20119;-75
2022/06/03 00:42:33;;;;;;;0.60;0.60;;;17.90;68.30;;;;;;5114008;28;20043;-75
2022/06/03 00:45:15;;;;;;;2.67;0.98;;;17.90;68.40;;;;;;5113489;28;20024;-75
2022/06/03 00:48:06;;;;;;;1.95;0.70;;;17.80;68.40;;;;;;5112207;28;20422;-74
2022/06/03 00:50:57;;;;;;;2.72;0.75;;;17.80;68.90;;;;;;5109748;28;20465;-74
2022/06/03 00:53:52;;;;;;;1.48;1.00;;;17.80;68.90;;;;;;5114174;28;20111;-74
2022/06/03 00:56:27;;;;;;;1.33;0.85;;;17.70;68.70;;;;;;5103314;28;20043;-74
2022/06/03 00:59:10;;;;;;;1.40;0.90;;;17.70;68.80;;;;;;5111984;28;20024;-74
2022/06/03 01:01:53;;;;;;;2.03;0.90;;;17.70;68.90;;;;;;5112588;28;20023;-76
2022/06/03 01:04:58;;;;;;;1.70;0.95;;;17.70;68.90;;;;;;5111844;28;20101;-75
2022/06/03 01:07:41;;;;;;;1.85;0.80;;;17.70;69.00;;;;;;5112280;28;20022;-75
2022/06/03 01:10:37;;;;;;;3.25;0.75;;;17.70;69.20;;;;;;5111845;28;20027;-75
2022/06/03 01:13:21;;;;;;;2.70;0.82;;;17.60;69.50;;;;;;5113507;28;20090;-75
2022/06/03 01:16:11;;;;;;;0.90;0.90;;;17.60;69.50;;;;;;5113721;28;20031;-74
2022/06/03 01:19:10;;;;;;;1.60;0.90;;;17.60;69.50;;;;;;5095518;28;20030;-76
2022/06/03 01:21:49;;;;;;;1.95;0.80;;;17.60;69.70;;;;;;5112273;28;20028;-77
2022/06/03 01:24:54;;;;;;;1.88;0.68;;;17.60;69.80;;;;;;5094069;28;20379;-74
2022/06/03 01:27:20;;;;;;;3.15;0.93;;;17.50;69.80;;;;;;5094752;28;20023;-74
2022/06/03 01:30:03;;;;;;;1.27;0.90;;;17.50;69.70;;;;;;5112900;28;20023;-75
2022/06/03 01:32:57;;;;;;;1.33;0.80;;;17.50;70.50;;;;;;5095771;28;20077;-75
2022/06/03 01:35:28;;;;;;;1.27;0.90;;;17.50;70.00;;;;;;5113886;28;21356;-74
2022/06/03 01:38:28;;;;;;;1.65;0.82;;;17.50;69.90;;;;;;5092860;28;20061;-74
2022/06/03 01:41:13;;;;;;;1.35;0.80;;;17.50;70.10;;;;;;5111424;28;20058;-74
2022/06/03 01:44:10;;;;;;;1.25;0.80;;;17.50;70.10;;;;;;5090587;28;20507;-77
2022/06/03 01:46:43;;;;;;;3.05;0.75;;;17.40;70.20;;;;;;5054097;28;20058;-77
2022/06/03 01:49:52;;;;;;;1.05;0.90;;;17.50;70.20;;;;;;5092667;28;20574;-75
2022/06/03 01:52:55;;;;;;;1.25;0.75;;;17.40;70.20;;;;;;5111836;28;20103;-75
2022/06/03 01:55:40;;;;;;;1.20;1.00;;;17.40;70.40;;;;;;5112561;28;20045;-75
2022/06/03 01:58:33;;;;;;;1.73;0.68;;;17.30;70.40;;;;;;5092181;28;20055;-75
2022/06/03 02:01:39;;;;;;;1.27;0.93;;;17.30;70.40;;;;;;5113247;28;20020;-75
2022/06/03 02:04:24;;;;;;;1.92;0.88;;;17.30;70.50;;;;;;5046853;28;20035;-75
2022/06/03 02:07:15;;;;;;;1.95;0.90;;;17.30;70.50;;;;;;5094802;28;20061;-75
2022/06/03 02:10:09;;;;;;;1.08;0.77;;;17.30;70.70;;;;;;5073863;28;20040;-76
2022/06/03 02:12:47;;;;;;;2.78;0.80;;;17.30;71.00;;;;;;5101798;28;20104;-75
2022/06/03 02:15:12;;;;;;;1.27;0.77;;;17.20;70.70;;;;;;5112750;28;20028;-75
2022/06/03 02:18:08;;;;;;;1.25;0.90;;;17.20;70.70;;;;;;5113419;28;20035;-76
2022/06/03 02:21:07;;;;;;;1.42;1.00;;;17.10;70.70;;;;;;5113622;28;20023;-75
2022/06/03 02:24:02;;;;;;;0.85;0.85;;;17.10;70.80;;;;;;5111994;28;20491;-75
2022/06/03 02:26:46;;;;;;;1.40;0.88;;;17.00;70.90;;;;;;5111909;28;20016;-75
2022/06/03 02:32:56;;;;;;;2.08;0.80;;;17.00;70.90;;;;;;5097272;28;20393;-75
2022/06/03 02:35:41;;;;;;;3.75;0.70;;;17.00;70.80;;;;;;5113269;28;20024;-74
2022/06/03 02:38:25;;;;;;;2.20;0.70;;;17.00;70.80;;;;;;5112049;28;20372;-75
2022/06/03 02:41:32;;;;;;;2.47;0.75;;;17.00;70.90;;;;;;5111164;28;20023;-76
2022/06/03 02:44:20;;;;;;;1.02;0.93;;;17.00;70.90;;;;;;5084541;28;20112;-76
2022/06/03 02:47:18;;;;;;;1.23;1.08;;;17.00;70.70;;;;;;5111264;28;20118;-76
2022/06/03 02:50:02;;;;;;;1.40;0.90;;;17.00;70.70;;;;;;5110944;28;20034;-75
2022/06/03 02:52:33;;;;;;;0.65;0.60;;;16.90;70.60;;;;;;5097174;28;20423;-75
2022/06/03 02:55:09;;;;;;;1.33;0.90;;;16.90;70.70;;;;;;5090901;28;20024;-75
2022/06/03 02:57:40;;;;;;;0.80;0.80;;;16.90;70.60;;;;;;5091365;28;20032;-75
2022/06/03 03:00:34;;;;;;;1.23;0.73;;;16.90;70.70;;;;;;5091013;28;20024;-75
2022/06/03 03:03:20;;;;;;;4.10;0.80;;;16.90;70.90;;;;;;5090862;28;20293;-75
2022/06/03 03:05:51;;;;;;;1.42;1.13;;;16.80;70.80;;;;;;5091980;28;20028;-75
2022/06/03 03:08:45;;;;;;;0.93;0.90;;;16.80;70.90;;;;;;5091302;28;20120;-75
2022/06/03 03:11:28;;;;;;;5.35;0.80;;;16.80;70.70;;;;;;5091414;28;20110;-75
2022/06/03 03:14:32;;;;;;;5.53;0.90;;;16.80;70.50;;;;;;5091763;28;20044;-75
2022/06/03 03:17:32;;;;;;;2.55;0.90;;;16.90;70.70;;;;;;5090375;28;20024;-75
2022/06/03 03:20:12;;;;;;;0.90;0.90;;;16.90;70.50;;;;;;5091778;28;20028;-75
2022/06/03 03:22:41;;;;;;;3.78;0.90;;;16.90;70.60;;;;;;5092305;28;20024;-75
2022/06/03 03:25:34;;;;;;;1.23;0.70;;;16.90;70.50;;;;;;5092393;28;20522;-75
2022/06/03 03:28:46;;;;;;;2.30;1.00;;;16.80;70.40;;;;;;5091783;28;20058;-75
2022/06/03 03:31:39;;;;;;;0.68;0.68;;;16.80;70.30;;;;;;5084302;28;20036;-75
2022/06/03 03:34:24;;;;;;;2.38;0.77;;;16.80;70.20;;;;;;5091724;28;20488;-74
2022/06/03 03:37:31;;;;;;;1.35;0.93;;;16.70;70.40;;;;;;5095806;28;20027;-75
2022/06/03 03:40:41;;;;;;;0.70;0.70;;;16.60;70.70;;;;;;5095739;28;20473;-75
2022/06/03 03:43:36;;;;;;;2.30;0.90;;;16.60;70.60;;;;;;5069438;28;20039;-75
2022/06/03 03:46:25;;;;;;;1.17;0.85;;;16.50;70.80;;;;;;5095679;28;20035;-75
2022/06/03 03:49:22;;;;;;;1.77;0.90;;;16.50;70.90;;;;;;5094219;28;20067;-75
2022/06/03 03:52:24;;;;;;;1.23;0.98;;;16.40;70.90;;;;;;5098038;28;20178;-75
2022/06/03 03:55:04;;;;;;;;;;;16.50;71.00;;;;;;5095834;28;20033;-75
2022/06/03 03:57:39;;;;;;;1.40;0.93;;;16.50;70.80;;;;;;5094732;28;19956;-74
2022/06/03 04:00:32;;;;;;;1.40;0.93;;;16.50;70.90;;;;;;5093679;28;20020;-75
2022/06/03 04:03:10;;;;;;;8.45;1.02;;;16.50;70.60;;;;;;5094029;28;20024;-74
2022/06/03 04:06:07;;;;;;;2.88;1.13;;;16.50;71.40;;;;;;5094612;28;20028;-74
2022/06/03 04:08:54;;;;;;;2.17;1.50;;;16.50;71.30;;;;;;5084378;28;20031;-75
2022/06/03 04:11:33;;;;;;;2.60;1.05;;;16.40;71.00;;;;;;5114768;28;20028;-74
2022/06/03 04:14:33;;;;;;;1.90;0.80;;;16.40;71.30;;;;;;5114011;28;20035;-74
2022/06/03 04:17:31;;;;;;;1.95;1.13;;;16.30;71.40;;;;;;5114153;28;20046;-74
2022/06/03 04:20:24;;;;;;;1.02;0.98;;;16.30;71.80;;;;;;5113993;28;20024;-74
2022/06/03 04:23:25;;;;;;;2.08;1.52;;;16.30;71.90;;;;;;5114168;28;20019;-76
2022/06/03 04:26:09;;;;;;;2.97;0.98;;;16.30;71.60;;;;;;5114001;28;20488;-75
2022/06/03 04:29:34;;;;;;;6.68;1.25;;;16.30;71.60;;;;;;5114814;28;20023;-75
2022/06/03 04:32:04;;;;;;;1.67;0.80;;;16.30;71.80;;;;;;5101481;28;20034;-74
2022/06/03 04:35:02;;;;;;;;;;;16.30;71.90;;;;;;5114870;28;20027;-74
2022/06/03 04:37:49;;;;;;;1.80;0.90;;;16.40;72.10;;;;;;5114002;28;19910;-75
2022/06/03 04:40:27;;;;;;;1.42;0.98;;;16.30;71.90;;;;;;5114243;28;20380;-75
2022/06/03 04:43:01;;;;;;;2.72;1.05;;;16.30;71.90;;;;;;5114469;28;20038;-75
2022/06/03 04:45:30;;;;;;;1.05;0.77;;;16.20;72.20;;;;;;5113502;28;20104;-75
2022/06/03 04:48:17;;;;;;;2.15;1.10;;;16.20;72.10;;;;;;5113328;28;20024;-75
2022/06/03 04:51:24;;;;;;;1.15;0.90;;;16.20;72.40;;;;;;5114034;28;20020;-74
2022/06/03 04:54:26;;;;;;;1.58;0.70;;;16.20;72.30;;;;;;5057439;28;20044;-76
2022/06/03 04:56:57;;;;;;;2.50;0.80;;;16.20;72.40;;;;;;5092817;28;20028;-74
2022/06/03 04:59:26;;;;;;;1.40;0.95;;;16.20;72.30;;;;;;5093361;28;20028;-73
2022/06/03 05:02:10;;;;;;;1.67;0.90;;;16.20;72.10;;;;;;5093995;28;20107;-74
2022/06/03 05:05:13;;;;;;;1.10;0.80;;;16.30;72.40;;;;;;5094323;28;20465;-74
2022/06/03 05:07:42;;;;;;;1.70;1.00;;;16.30;72.40;;;;;;5086095;28;20032;-74
2022/06/03 05:10:29;;;;;;;1.63;1.08;;;16.30;72.00;;;;;;5092691;28;20024;-74
2022/06/03 05:13:27;;;;;;;2.20;0.93;;;16.40;72.10;;;;;;5091838;28;20055;-74
2022/06/03 05:16:29;;;;;;;2.63;1.10;;;16.40;72.40;;;;;;5092679;28;20373;-75
2022/06/03 05:18:55;;;;;;;1.20;0.90;;;16.40;72.10;;;;;;5092512;28;20028;-75
2022/06/03 05:21:33;;;;;;;3.00;0.95;;;16.40;72.50;;;;;;5094418;28;20358;-74
2022/06/03 05:24:29;;;;;;;2.05;1.05;;;16.40;72.30;;;;;;5092283;28;20032;-74
2022/06/03 05:27:08;;;;;;;1.10;0.88;;;16.50;72.10;;;;;;5092356;28;20020;-75
2022/06/03 05:29:58;;;;;;;1.52;1.10;;;16.50;72.20;;;;;;5093265;28;20126;-74
2022/06/03 05:32:54;;;;;;;0.75;0.63;;;16.60;72.20;;;;;;5093107;28;20032;-74
2022/06/03 05:35:38;;;;;;;1.88;1.00;;;16.60;72.40;;;;;;5093083;28;20058;-74
2022/06/03 05:38:29;;;;;;;2.22;0.80;;;16.70;72.40;;;;;;5093456;28;20530;-74
2022/06/03 05:42:23;;;;;;;1.67;0.90;;;16.70;72.00;;;;;;5092199;28;20055;-74
2022/06/03 05:44:11;;;;;;;2.03;0.90;;;16.70;72.10;;;;;;5092709;28;20279;-74
2022/06/03 05:46:48;;;;;;;1.00;0.90;;;16.80;72.30;;;;;;5092622;28;20473;-74
2022/06/03 05:49:31;;;;;;;1.70;0.90;;;16.80;72.00;;;;;;5091583;28;20016;-74
2022/06/03 05:52:23;;;;;;;1.83;1.00;;;16.90;71.80;;;;;;5091877;28;20028;-75
2022/06/03 05:55:21;;;;;;;1.85;0.90;;;16.90;71.90;;;;;;5078331;28;20089;-75
2022/06/03 05:58:09;;;;;;;2.17;0.93;;;17.10;71.90;;;;;;5092586;28;20477;-74
2022/06/03 06:00:51;;;;;;;0.90;0.80;;;17.10;71.80;;;;;;5071711;28;20113;-74
2022/06/03 06:03:54;;;;;;;1.48;0.93;;;17.20;71.70;;;;;;5093439;28;20035;-73
2022/06/03 06:06:52;;;;;;;2.00;1.10;;;17.20;72.20;;;;;;5092008;28;20043;-74
2022/06/03 06:09:50;;;;;;;1.63;0.80;;;17.20;71.50;;;;;;5091903;28;20016;-74
2022/06/03 06:12:29;;;;;;;1.23;0.57;;;17.30;71.80;;;;;;5058151;28;20056;-74
2022/06/03 06:15:10;;;;;;;1.73;0.95;;;17.40;71.30;;;;;;5074465;28;20028;-76
2022/06/03 06:18:13;;;;;;;1.02;0.80;;;17.40;71.30;;;;;;5092869;28;20028;-74
2022/06/03 06:20:45;;;;;;;6.45;1.17;;;17.50;70.70;;;;;;5093217;28;20119;-75
2022/06/03 06:23:30;;;;;;;0.98;0.90;;;17.50;70.90;;;;;;5074435;28;20494;-74
2022/06/03 06:26:01;;;;;;;1.95;0.80;;;17.60;70.90;;;;;;5074352;28;20415;-75
2022/06/03 06:28:54;;;;;;;2.72;0.73;;;17.70;70.60;;;;;;5093487;28;20020;-75
2022/06/03 06:31:33;;;;;;;1.33;1.10;;;17.70;70.70;;;;;;5074855;28;20059;-74
2022/06/03 06:33:59;;;;;;;1.45;0.80;;;17.80;70.40;;;;;;5074236;28;20028;-74
2022/06/03 06:37:00;;;;;;;1.17;0.88;;;17.90;70.30;;;;;;5074952;28;20028;-75
2022/06/03 06:40:04;;;;;;;0.98;0.88;;;17.90;70.30;;;;;;5092962;28;20031;-75
2022/06/03 06:42:53;;;;;;;1.80;1.02;;;18.00;70.20;;;;;;5074863;28;20093;-74
2022/06/03 06:45:21;;;;;;;5.45;1.17;;;18.00;70.80;;;;;;5063603;28;20055;-75
2022/06/03 06:48:05;;;;;;;8.40;1.90;;;18.00;70.60;;;;;;5074674;28;20118;-74
2022/06/03 06:50:49;;;;;;;4.68;1.33;;;18.00;70.60;;;;;;5074838;28;20028;-74
2022/06/03 06:53:34;;;;;;;4.65;1.05;;;18.00;71.00;;;;;;5073891;28;20755;-75
2022/06/03 06:56:23;;;;;;;4.38;0.90;;;18.10;71.30;;;;;;5092059;28;20058;-74
2022/06/03 06:59:05;;;;;;;1.63;0.80;;;18.20;70.60;;;;;;5092052;28;20036;-74
2022/06/03 07:01:44;;;;;;;3.03;1.13;;;18.20;70.30;;;;;;5104342;27;20019;-74
2022/06/03 07:04:16;;;;;;;1.50;0.95;;;18.20;70.20;;;;;;5094121;28;20027;-75
2022/06/03 07:06:46;;;;;;;1.92;0.80;;;18.30;70.50;;;;;;5094732;28;20525;-75
2022/06/03 07:09:24;;;;;;;1.30;0.98;;;18.40;70.10;;;;;;5096344;27;20431;-74
2022/06/03 07:11:58;;;;;;;2.22;1.20;;;18.60;70.20;;;;;;5091375;28;20052;-75
2022/06/03 07:14:35;;;;;;;4.50;1.10;;;18.70;70.40;;;;;;5102170;28;20029;-74
2022/06/03 07:20:36;;;;;;;3.75;0.90;;;18.70;70.10;;;;;;5102643;28;20092;-75
2022/06/03 07:23:11;;;;;;;1.90;1.10;;;18.70;70.00;;;;;;5102688;28;20024;-76
2022/06/03 07:25:54;;;;;;;1.75;0.88;;;18.80;70.60;;;;;;5102793;28;20035;-74
2022/06/03 07:28:35;;;;;;;3.53;0.95;;;18.80;70.00;;;;;;5112607;28;20028;-75
2022/06/03 07:31:22;;;;;;;2.63;1.10;;;18.90;70.20;;;;;;5105356;28;20101;-75
2022/06/03 07:34:15;;;;;;;2.92;1.00;;;18.90;70.90;;;;;;5110660;28;20034;-74
2022/06/03 07:36:50;;;;;;;4.38;1.10;;;19.10;70.20;;;;;;5110960;28;20080;-75
2022/06/03 07:39:34;;;;;;;4.28;1.10;;;19.30;71.20;;;;;;5110454;28;20024;-74
2022/06/03 07:42:04;;;;;;;1.27;1.05;;;19.40;71.00;;;;;;5107020;28;20103;-77
2022/06/03 07:44:41;;;;;;;2.05;1.40;;;19.30;70.60;;;;;;5112547;28;20457;-75
2022/06/03 07:47:08;;;;;;;1.10;1.00;;;19.40;71.30;;;;;;5100302;28;20028;-75
2022/06/03 07:49:37;;;;;;;2.72;1.10;;;19.40;71.30;;;;;;5113272;28;20031;-75
2022/06/03 07:52:19;;;;;;;4.50;1.40;;;19.50;71.90;;;;;;5115361;28;20028;-75
2022/06/03 07:54:55;;;;;;;3.85;1.35;;;19.50;72.00;;;;;;5122801;28;20388;-74
2022/06/03 07:57:24;;;;;;;1.77;1.20;;;19.50;72.10;;;;;;5113482;28;20020;-74
2022/06/03 07:59:54;;;;;;;4.65;1.25;;;19.60;72.20;;;;;;5109204;28;20053;-74
2022/06/03 08:02:22;;;;;;;2.17;1.10;;;19.60;72.70;;;;;;5107682;28;20039;-78
2022/06/03 08:04:59;;;;;;;1.88;1.30;;;19.60;72.40;;;;;;5122187;28;20454;-75
2022/06/03 08:13:13;;;;;;;5.85;1.48;;;19.70;72.50;;;;;;5095409;28;20078;-75
2022/06/03 08:15:45;;;;;;;6.43;1.70;;;19.70;72.30;;;;;;5094209;28;20034;-75
2022/06/03 08:18:16;;;;;;;2.35;1.30;;;19.70;72.90;;;;;;5093705;28;20019;-75
2022/06/03 08:20:51;;;;;;;13.40;1.83;;;19.80;72.80;;;;;;5096381;28;20024;-75
2022/06/03 08:23:19;;;;;;;2.33;1.40;;;19.90;72.70;;;;;;5097220;28;20264;-77
2022/06/03 08:25:49;;;;;;;3.03;1.38;;;19.90;72.60;;;;;;5116309;28;20106;-76
2022/06/03 08:28:24;;;;;;;2.95;1.35;;;20.00;73.10;;;;;;5097288;28;20107;-76
2022/06/03 08:30:54;;;;;;;4.55;1.40;;;20.00;73.20;;;;;;5104549;27;20456;-77
2022/06/03 08:33:38;;;;;;;4.10;1.50;;;20.00;73.10;;;;;;5098069;28;20035;-77
2022/06/03 08:36:05;;;;;;;3.55;1.42;;;20.00;73.40;;;;;;5102421;28;20023;-77
2022/06/03 08:38:44;;;;;;;3.45;1.60;;;20.10;73.10;;;;;;5103785;27;20023;-75
2022/06/03 08:41:25;;;;;;;2.28;1.40;;;20.00;73.10;;;;;;5088129;27;20089;-77
2022/06/03 08:44:18;;;;;;;3.83;1.50;;;20.20;73.80;;;;;;5100641;28;20047;-77
2022/06/03 08:47:06;;;;;;;2.80;1.70;;;20.30;73.50;;;;;;5107648;27;20019;-77
2022/06/03 08:50:06;;;;;;;4.00;1.67;;;20.40;73.40;;;;;;5121076;27;20034;-77
2022/06/03 08:52:37;;;;;;;2.63;1.70;;;20.40;74.00;;;;;;5104492;27;20070;-77
2022/06/03 08:55:14;;;;;;;2.25;1.38;;;20.60;73.60;;;;;;5105207;27;20408;-77
2022/06/03 08:57:45;;;;;;;2.13;1.50;;;20.70;73.20;;;;;;5104789;27;20469;-77
2022/06/03 09:00:18;;;;;;;2.73;1.77;;;20.70;73.50;;;;;;5117836;27;20030;-76
2022/06/03 09:03:10;;;;;;;2.30;1.50;;;20.80;73.40;;;;;;5117419;27;20028;-76
2022/06/03 09:05:58;;;;;;;2.03;1.60;;;20.90;73.90;;;;;;5117243;27;20020;-75
2022/06/03 09:08:36;;;;;;;3.10;1.50;;;21.00;73.20;;;;;;5084309;28;20024;-74
2022/06/03 09:11:16;;;;;;;3.50;1.88;;;21.10;73.00;;;;;;5089235;28;20031;-76
2022/06/03 09:13:56;;;;;;;6.55;1.80;;;21.20;73.00;;;;;;5105236;28;20039;-76
2022/06/03 09:16:25;;;;;;;6.20;1.98;;;21.20;72.70;;;;;;5109505;27;20030;-75
2022/06/03 09:19:15;;;;;;;2.60;1.60;;;21.20;72.80;;;;;;5127582;27;20033;-75
2022/06/03 09:21:45;;;;;;;2.40;1.60;;;21.20;72.80;;;;;;5120467;27;20134;-77
2022/06/03 09:24:19;;;;;;;3.70;1.53;;;21.30;73.30;;;;;;5111054;27;20388;-76
2022/06/03 09:26:50;;;;;;;2.65;1.50;;;21.30;73.20;;;;;;5106204;28;20256;-76
2022/06/03 09:29:16;;;;;;;;;;;21.40;73.10;;;;;;5103963;28;20051;-76
2022/06/03 09:31:48;;;;;;;2.10;1.67;;;21.30;73.00;;;;;;5109423;28;19944;-76
2022/06/03 09:34:15;;;;;;;2.67;1.58;;;21.30;73.40;;;;;;5103720;28;20032;-76
2022/06/03 09:36:41;;;;;;;2.50;1.42;;;21.40;73.50;;;;;;5101837;28;20023;-77
2022/06/03 09:39:13;;;;;;;3.40;1.50;;;21.50;73.20;;;;;;5105862;28;20024;-76
2022/06/03 09:41:41;;;;;;;4.70;1.77;;;21.60;73.20;;;;;;5114950;28;20024;-78
2022/06/03 09:44:11;;;;;;;3.92;1.65;;;21.80;73.10;;;;;;5113846;27;20580;-77
2022/06/03 09:46:38;;;;;;;3.70;1.42;;;22.00;72.60;;;;;;5125538;27;20043;-78
2022/06/03 09:49:05;;;;;;;1.52;1.42;;;22.20;72.20;;;;;;5120419;27;20134;-77
2022/06/03 09:51:55;;;;;;;3.38;1.88;;;22.30;71.80;;;;;;5120365;27;20028;-78
2022/06/03 09:54:31;;;;;;;3.40;1.50;;;22.50;71.70;;;;;;5115698;27;20035;-81
2022/06/03 09:57:06;;;;;;;3.53;1.60;;;22.80;71.00;;;;;;5094712;28;20111;-79
2022/06/03 09:59:35;;;;;;;4.10;1.50;;;22.90;70.50;;;;;;5114686;27;20472;-76
2022/06/03 10:02:01;;;;;;;2.15;1.70;;;23.10;70.80;;;;;;5107478;27;21286;-77
2022/06/03 10:04:27;;;;;;;2.50;1.67;;;23.10;70.20;;;;;;5104439;28;20016;-78
2022/06/03 10:06:53;;;;;;;2.22;1.80;;;23.20;70.20;;;;;;5107212;28;20024;-78
2022/06/03 10:18:03;;;;;;;5.00;1.50;;;23.20;70.70;;;;;;5125197;27;20106;-79
2022/06/03 10:20:29;;;;;;;5.15;1.90;;;23.40;70.50;;;;;;5107111;27;20054;-77
2022/06/03 10:22:55;;;;;;;3.20;1.65;;;23.50;70.30;;;;;;5122698;27;20448;-77
2022/06/03 10:25:24;;;;;;;3.03;1.50;;;23.50;70.40;;;;;;5095373;28;20020;-78
2022/06/03 10:27:49;;;;;;;3.40;1.55;;;23.50;70.00;;;;;;5099325;27;20079;-78
2022/06/03 10:30:26;;;;;;;2.30;1.67;;;23.50;70.50;;;;;;5132625;27;20030;-77
2022/06/03 10:32:51;;;;;;;3.17;1.65;;;23.60;70.10;;;;;;5102724;27;20031;-78
2022/06/03 10:35:18;;;;;;;4.72;1.90;;;23.70;69.90;;;;;;5110232;28;20076;-76
2022/06/03 10:37:50;;;;;;;2.00;1.60;;;23.90;69.80;;;;;;5112721;28;20020;-76
2022/06/03 10:40:17;;;;;;;1.80;1.58;;;24.10;69.40;;;;;;5094486;28;20023;-77
2022/06/03 10:42:47;;;;;;;5.72;3.05;;;24.10;69.50;;;;;;5102592;27;20340;-76
2022/06/03 10:45:13;;;;;;;35.03;18.80;;;24.10;69.30;;;;;;5102465;27;20063;-77
2022/06/03 10:47:43;;;;;;;5.25;3.53;;;24.20;69.50;;;;;;5097506;28;20031;-76
2022/06/03 10:50:31;;;;;;;4.57;2.65;;;24.20;69.00;;;;;;5093711;28;20028;-76
2022/06/03 11:01:42;;;;;;;2.47;1.77;;;24.50;68.80;;;;;;5102128;28;20545;-75
2022/06/03 11:04:22;;;;;;;2.83;1.60;;;24.50;68.20;;;;;;5101574;27;20484;-76
2022/06/03 11:06:47;;;;;;;2.35;1.63;;;24.60;68.40;;;;;;5088846;28;20032;-77
2022/06/03 11:09:15;;;;;;;3.35;1.90;;;24.60;68.60;;;;;;5105363;28;20045;-76
2022/06/03 11:11:48;;;;;;;4.40;1.85;;;24.70;68.90;;;;;;5100799;28;20025;-75
2022/06/03 11:14:40;;;;;;;5.80;1.88;;;24.70;68.80;;;;;;5106919;28;20066;-76
2022/06/03 11:17:19;;;;;;;3.28;1.77;;;24.70;68.50;;;;;;5101491;28;20468;-77
2022/06/03 11:19:49;;;;;;;2.65;1.75;;;24.60;68.30;;;;;;5118004;28;20020;-76
2022/06/03 11:22:28;;;;;;;3.00;1.58;;;24.60;68.30;;;;;;5103273;28;20020;-76
2022/06/03 11:25:18;;;;;;;2.47;1.83;;;24.70;68.50;;;;;;5092193;28;20020;-75
2022/06/03 11:28:01;;;;;;;2.22;1.63;;;24.70;68.30;;;;;;5090154;28;20036;-75
2022/06/03 11:30:46;;;;;;;5.28;2.00;;;24.80;68.40;;;;;;5086723;28;20023;-76
2022/06/03 11:33:31;;;;;;;6.10;1.58;;;24.90;68.20;;;;;;5082614;28;20031;-76
2022/06/03 11:36:03;;;;;;;3.67;1.80;;;24.90;67.90;;;;;;5087009;28;20024;-77
2022/06/03 11:38:49;;;;;;;3.58;1.70;;;25.10;68.00;;;;;;5083424;28;20472;-77
2022/06/03 11:41:34;;;;;;;4.32;1.75;;;25.20;67.90;;;;;;5088863;28;20491;-75
2022/06/03 11:44:19;;;;;;;2.65;1.75;;;25.20;67.60;;;;;;5081177;28;20028;-76
2022/06/03 11:47:04;;;;;;;6.18;2.00;;;25.20;68.20;;;;;;5083147;28;20077;-75
2022/06/03 11:49:30;;;;;;;4.43;1.77;;;25.40;67.90;;;;;;5102717;28;20012;-76
2022/06/03 11:51:56;;;;;;;3.67;2.17;;;25.30;67.60;;;;;;5084585;28;20024;-76
2022/06/03 11:54:25;;;;;;;3.35;1.80;;;25.40;67.60;;;;;;5083529;28;20169;-75
2022/06/03 11:56:52;;;;;;;2.80;1.88;;;25.50;67.20;;;;;;5089667;28;20030;-77
2022/06/03 11:59:27;;;;;;;4.30;2.00;;;25.60;67.00;;;;;;5107106;28;20024;-81
2022/06/03 12:02:01;;;;;;;2.47;1.88;;;25.60;66.90;;;;;;5081878;28;20105;-78
2022/06/03 12:04:36;;;;;;;2.38;2.05;;;25.60;67.00;;;;;;5101629;28;20035;-76
2022/06/03 12:07:08;;;;;;;2.35;1.77;;;25.70;67.10;;;;;;5102663;28;20053;-78
2022/06/03 12:10:04;;;;;;;3.72;2.10;;;25.70;67.10;;;;;;5115934;28;20024;-77
2022/06/03 12:15:38;;;;;;;4.60;2.30;;;25.70;66.80;;;;;;5102681;28;20108;-77
2022/06/03 12:18:07;;;;;;;2.30;2.10;;;25.70;67.10;;;;;;5114556;28;20032;-78
2022/06/03 12:20:32;;;;;;;3.25;2.10;;;25.90;67.00;;;;;;5104218;27;20026;-78
2022/06/03 12:23:13;;;;;;;3.25;2.00;;;25.80;67.10;;;;;;5108959;28;20123;-78
2022/06/03 12:25:53;;;;;;;3.13;1.60;;;25.70;67.30;;;;;;5101575;28;20024;-77
2022/06/03 12:28:24;;;;;;;3.15;1.85;;;25.70;67.40;;;;;;5099733;28;20476;-77
2022/06/03 12:30:57;;;;;;;2.90;1.80;;;25.70;67.60;;;;;;5111139;28;20562;-77
2022/06/03 12:33:47;;;;;;;1.85;1.50;;;25.60;67.40;;;;;;5086117;28;20040;-77
2022/06/03 12:36:33;;;;;;;3.35;2.20;;;25.40;67.50;;;;;;5087770;28;20121;-76
2022/06/03 12:39:07;;;;;;;2.42;2.00;;;25.30;68.40;;;;;;5085726;28;20543;-76
2022/06/03 12:42:03;;;;;;;2.83;1.73;;;25.20;69.30;;;;;;5067882;28;20020;-77
2022/06/03 12:44:49;;;;;;;3.28;2.47;;;25.20;69.40;;;;;;5072921;28;20040;-76
2022/06/03 12:47:28;;;;;;;5.40;2.17;;;25.10;70.00;;;;;;5092640;28;20047;-78
2022/06/03 12:49:56;;;;;;;3.17;1.80;;;25.20;70.00;;;;;;5068421;28;20028;-79
2022/06/03 12:52:25;;;;;;;2.25;1.90;;;25.50;69.70;;;;;;5081537;28;20105;-77
2022/06/03 12:55:10;;;;;;;5.95;2.85;;;25.80;68.40;;;;;;5111310;27;20063;-75
2022/06/03 12:57:55;;;;;;;133.73;71.22;;;26.20;68.30;;;;;;5106321;28;20027;-77
2022/06/03 13:00:22;;;;;;;49.15;31.48;;;26.40;67.40;;;;;;5113689;28;20059;-76
2022/06/03 13:02:50;;;;;;;11.38;6.80;;;26.50;67.00;;;;;;5113711;28;20118;-77
2022/06/03 13:05:56;;;;;;;5.18;3.40;;;26.50;66.70;;;;;;5114351;28;20104;-79
2022/06/03 13:08:28;;;;;;;2.72;2.25;;;26.50;66.40;;;;;;5015963;28;20037;-77
2022/06/03 13:11:08;;;;;;;3.35;2.28;;;26.50;66.90;;;;;;5032243;28;20040;-77
2022/06/03 13:13:39;;;;;;;4.88;2.20;;;26.50;66.50;;;;;;5015660;28;20049;-81
2022/06/03 13:16:38;;;;;;;2.65;2.10;;;26.50;66.40;;;;;;5026003;28;20155;-77
2022/06/03 13:19:18;;;;;;;3.97;1.98;;;26.40;66.90;;;;;;5023821;28;20045;-79
2022/06/03 13:22:02;;;;;;;2.40;2.15;;;26.30;66.30;;;;;;5014704;28;20037;-78
2022/06/03 13:24:32;;;;;;;4.22;2.60;;;26.20;66.30;;;;;;5016363;28;20021;-79
2022/06/03 13:27:22;;;;;;;4.30;2.90;;;26.10;66.30;;;;;;5027097;28;20032;-79
2022/06/03 13:30:12;;;;;;;6.18;2.30;;;26.10;66.50;;;;;;5013479;28;20026;-79
2022/06/03 13:32:58;;;;;;;6.32;4.97;;;26.00;66.70;;;;;;4991502;28;20133;-78
2022/06/03 13:35:27;;;;;;;3.72;3.15;;;25.80;67.20;;;;;;4976623;28;20508;-80
2022/06/03 13:37:55;;;;;;;3.42;2.63;;;25.80;67.10;;;;;;4978373;28;20038;-79
2022/06/03 13:40:24;;;;;;;2.45;2.25;;;25.80;66.60;;;;;;5029125;28;20136;-80
2022/06/03 13:42:59;;;;;;;8.10;5.30;;;25.70;66.30;;;;;;5027511;28;20091;-79
2022/06/03 13:45:43;;;;;;;5.28;3.83;;;25.70;66.00;;;;;;5033574;28;20101;-80
2022/06/03 13:48:16;;;;;;;3.22;2.42;;;25.70;66.30;;;;;;5051525;28;20490;-77
2022/06/03 13:50:42;;;;;;;3.63;2.10;;;25.70;66.10;;;;;;5051433;28;20059;-77
2022/06/03 13:53:11;;;;;;;3.30;2.28;;;25.70;66.20;;;;;;5033755;28;20041;-76
2022/06/03 13:55:37;;;;;;;3.85;2.08;;;25.60;66.80;;;;;;5050506;28;20438;-76
2022/06/03 13:58:31;;;;;;;7.22;2.30;;;25.60;67.30;;;;;;5033785;28;20068;-77
2022/06/03 14:01:25;;;;;;;6.75;2.60;;;25.60;67.80;;;;;;5050403;28;20075;-75
2022/06/03 14:04:00;;;;;;;3.08;2.08;;;25.50;68.30;;;;;;5029985;28;20590;-75
2022/06/03 14:06:33;;;;;;;6.55;4.10;;;25.40;67.80;;;;;;5033759;28;20512;-77
2022/06/03 14:09:22;;;;;;;4.68;2.75;;;25.40;68.10;;;;;;5048602;28;20503;-78
2022/06/03 14:11:55;;;;;;;3.42;2.70;;;25.40;68.20;;;;;;5092892;28;20082;-77
2022/06/03 14:14:56;;;;;;;3.97;2.42;;;25.50;68.50;;;;;;5086993;28;20036;-76
2022/06/03 14:17:58;;;;;;;8.27;2.40;;;25.50;68.70;;;;;;5064042;28;20203;-77
2022/06/03 14:20:49;;;;;;;5.15;2.20;;;25.50;68.90;;;;;;5069530;28;20485;-76
2022/06/03 14:23:21;;;;;;;4.97;2.30;;;25.70;68.60;;;;;;5033379;28;20041;-76
2022/06/03 14:26:15;;;;;;;4.90;2.35;;;25.80;68.40;;;;;;5041773;28;20116;-77
2022/06/03 14:29:03;;;;;;;3.10;2.50;;;25.80;68.20;;;;;;5030049;28;20124;-76
2022/06/03 14:31:33;;;;;;;9.57;2.80;;;25.70;68.30;;;;;;5036122;28;20081;-76
2022/06/03 14:34:13;;;;;;;3.53;2.53;;;25.60;68.70;;;;;;5042753;28;20075;-76
2022/06/03 14:36:39;;;;;;;2.90;1.95;;;25.60;69.10;;;;;;5033565;28;20021;-77